Terminal Aerodrome Forecast
Issued by NWS Wilmington, OH

Home | Current Version | Previous Version | Text Only | Print | Product List | Glossary On
Versions: 1 2 3 4 5 6 7 8 9 10 11 12 13 14
288
FTUS41 KILN 241136
TAFCMH
TAF
KCMH 241136Z 2412/2512 19010KT P6SM BKN120 WS020/22045KT
     FM241500 21012G20KT P6SM SCT040 BKN150
     FM241900 21014G22KT P6SM BKN040
     FM242300 21010G16KT P6SM BKN060
     FM250400 20006KT P6SM BKN080
     FM251100 18006KT P6SM OVC080=

USA.gov is the U.S. government's official web portal to all federal, state and local government web resources and services.